createdAt,value
2023-05-09T00:00:08.356Z,95469.00
2023-05-09T00:01:08.388Z,95473.00
2023-05-09T00:02:08.455Z,95467.00
2023-05-09T00:03:08.494Z,95471.00
2023-05-09T00:04:08.516Z,95467.00
2023-05-09T00:05:08.522Z,95467.00
2023-05-09T00:06:08.614Z,95469.00
2023-05-09T00:07:08.556Z,95467.00
2023-05-09T00:08:08.565Z,95465.00
2023-05-09T00:09:08.622Z,95465.00
2023-05-09T00:10:08.695Z,95463.00
2023-05-09T00:11:08.666Z,95463.00
2023-05-09T00:12:08.707Z,95459.00
2023-05-09T00:13:08.768Z,95459.00
2023-05-09T00:14:08.809Z,95455.00
2023-05-09T00:15:08.784Z,95453.00
2023-05-09T00:16:08.875Z,95453.00
2023-05-09T00:17:08.858Z,95451.00
2023-05-09T00:18:08.883Z,95451.00
2023-05-09T00:19:08.905Z,95451.00
2023-05-09T00:20:08.938Z,95449.00
2023-05-09T00:21:08.944Z,95447.00
2023-05-09T00:22:09.062Z,95447.00
2023-05-09T00:23:09.015Z,95451.00
2023-05-09T00:24:09.067Z,95451.00
2023-05-09T00:25:09.057Z,95449.00
2023-05-09T00:26:09.108Z,95451.00
2023-05-09T00:27:09.120Z,95451.00
2023-05-09T00:28:09.163Z,95453.00
2023-05-09T00:29:09.166Z,95451.00
2023-05-09T00:30:09.167Z,95449.00
2023-05-09T00:31:09.208Z,95451.00
2023-05-09T00:32:09.403Z,95447.00
2023-05-09T00:33:09.286Z,95445.00
2023-05-09T00:34:09.269Z,95447.00
2023-05-09T00:35:09.304Z,95445.00
2023-05-09T00:36:09.307Z,95445.00
2023-05-09T00:37:09.358Z,95445.00
2023-05-09T00:38:09.455Z,95444.00
2023-05-09T00:39:09.370Z,95445.00
2023-05-09T00:40:09.430Z,95445.00
2023-05-09T00:41:09.475Z,95444.00
2023-05-09T00:42:09.838Z,95440.00
2023-05-09T00:43:09.508Z,95442.00
2023-05-09T00:44:09.553Z,95442.00
2023-05-09T00:45:09.573Z,95442.00
2023-05-09T00:46:09.660Z,95440.00
2023-05-09T00:47:09.637Z,95438.00
2023-05-09T00:48:09.644Z,95438.00
2023-05-09T00:49:09.677Z,95436.00
2023-05-09T00:50:09.691Z,95436.00
2023-05-09T00:51:09.733Z,95436.00
2023-05-09T00:52:09.872Z,95428.00
2023-05-09T00:53:09.772Z,95432.00
2023-05-09T00:54:09.921Z,95426.00
2023-05-09T00:55:09.831Z,95430.00
2023-05-09T00:56:09.863Z,95424.00
2023-05-09T00:57:09.913Z,95426.00
2023-05-09T00:58:09.951Z,95424.00
2023-05-09T00:59:09.976Z,95424.00
2023-05-09T01:00:10.003Z,95424.00
2023-05-09T01:01:10.028Z,95424.00
2023-05-09T01:02:10.023Z,95424.00
2023-05-09T01:03:10.123Z,95424.00
2023-05-09T01:04:10.084Z,95424.00
2023-05-09T01:05:10.118Z,95424.00
2023-05-09T01:06:10.176Z,95420.00
2023-05-09T01:07:10.193Z,95420.00
2023-05-09T01:08:10.202Z,95420.00
2023-05-09T01:09:10.268Z,95414.00
2023-05-09T01:10:10.355Z,95416.00
2023-05-09T01:11:10.270Z,95416.00
2023-05-09T01:12:10.345Z,95414.00
2023-05-09T01:13:10.399Z,95414.00
2023-05-09T01:14:10.400Z,95414.00
2023-05-09T01:15:10.417Z,95412.00
2023-05-09T01:16:10.521Z,95414.00
2023-05-09T01:17:10.494Z,95412.00
2023-05-09T01:18:10.548Z,95412.00
2023-05-09T01:19:10.537Z,95412.00
2023-05-09T01:20:10.570Z,95410.00
2023-05-09T01:21:10.568Z,95410.00
2023-05-09T01:22:10.593Z,95406.00
2023-05-09T01:23:10.640Z,95398.00
2023-05-09T01:24:10.699Z,95406.00
2023-05-09T01:25:10.712Z,95398.00
2023-05-09T01:26:10.807Z,95396.00
2023-05-09T01:27:10.767Z,95396.00
2023-05-09T01:28:10.786Z,95406.00
2023-05-09T01:29:10.824Z,95396.00
2023-05-09T01:30:10.891Z,95398.00
2023-05-09T01:31:10.880Z,95398.00
2023-05-09T01:32:10.883Z,95398.00
2023-05-09T01:33:10.983Z,95406.00
2023-05-09T01:34:10.966Z,95408.00
2023-05-09T01:35:10.959Z,95408.00
2023-05-09T01:36:10.970Z,95408.00
2023-05-09T01:37:11.036Z,95408.00
2023-05-09T01:38:11.046Z,95408.00
2023-05-09T01:39:11.064Z,95406.00
2023-05-09T01:40:11.093Z,95406.00
2023-05-09T01:41:11.117Z,95398.00
2023-05-09T01:42:11.230Z,95398.00
2023-05-09T01:43:11.180Z,95398.00
2023-05-09T01:44:11.297Z,95398.00
2023-05-09T01:45:11.270Z,95406.00
2023-05-09T01:46:11.315Z,95406.00
2023-05-09T01:47:11.323Z,95406.00
2023-05-09T01:48:11.304Z,95408.00
2023-05-09T01:49:11.331Z,95398.00
2023-05-09T01:50:11.371Z,95406.00
2023-05-09T01:51:11.417Z,95396.00
2023-05-09T01:52:11.462Z,95396.00
2023-05-09T01:53:11.450Z,95396.00
2023-05-09T01:54:11.515Z,95396.00
2023-05-09T01:55:11.619Z,95394.00
2023-05-09T01:56:11.572Z,95394.00
2023-05-09T01:57:11.590Z,95394.00
2023-05-09T01:58:11.682Z,95394.00
2023-05-09T01:59:11.640Z,95396.00
2023-05-09T02:00:11.682Z,95396.00
2023-05-09T02:01:11.713Z,95394.00
2023-05-09T02:02:11.893Z,95392.00
2023-05-09T02:03:11.812Z,95392.00
2023-05-09T02:04:11.805Z,95391.00
2023-05-09T02:05:12.128Z,95391.00
2023-05-09T02:06:11.812Z,95391.00
2023-05-09T02:07:11.896Z,95391.00
2023-05-09T02:08:11.922Z,95389.00
2023-05-09T02:09:11.940Z,95389.00
2023-05-09T02:10:12.012Z,95389.00
2023-05-09T02:11:12.037Z,95391.00
2023-05-09T02:12:12.043Z,95389.00
2023-05-09T02:13:12.090Z,95389.00
2023-05-09T02:14:12.200Z,95389.00
2023-05-09T02:15:12.329Z,95391.00
2023-05-09T02:16:12.184Z,95387.00
2023-05-09T02:17:12.197Z,95387.00
2023-05-09T02:18:12.247Z,95385.00
2023-05-09T02:19:12.276Z,95379.00
2023-05-09T02:20:12.288Z,95383.00
2023-05-09T02:21:12.391Z,95383.00
2023-05-09T02:22:12.379Z,95383.00
2023-05-09T02:23:12.378Z,95381.00
2023-05-09T02:24:12.406Z,95383.00
2023-05-09T02:25:12.594Z,95383.00
2023-05-09T02:26:12.468Z,95381.00
2023-05-09T02:27:12.480Z,95379.00
2023-05-09T02:28:12.520Z,95379.00
2023-05-09T02:29:12.549Z,95379.00
2023-05-09T02:30:12.667Z,95377.00
2023-05-09T02:31:12.596Z,95377.00
2023-05-09T02:32:12.672Z,95377.00
2023-05-09T02:33:12.766Z,95373.00
2023-05-09T02:34:12.747Z,95375.00
2023-05-09T02:35:12.863Z,95373.00
2023-05-09T02:36:12.791Z,95371.00
2023-05-09T02:37:12.823Z,95369.00
2023-05-09T02:38:12.840Z,95367.00
2023-05-09T02:39:12.867Z,95371.00
2023-05-09T02:40:12.951Z,95369.00
2023-05-09T02:41:12.973Z,95369.00
2023-05-09T02:42:13.406Z,95369.00
2023-05-09T02:43:13.028Z,95371.00
2023-05-09T02:44:13.084Z,95373.00
2023-05-09T02:45:13.375Z,95371.00
2023-05-09T02:46:13.214Z,95371.00
2023-05-09T02:47:13.173Z,95371.00
2023-05-09T02:48:13.261Z,95371.00
2023-05-09T02:49:22.792Z,95369.00
2023-05-09T02:50:14.206Z,95365.00
2023-05-09T02:51:13.221Z,95367.00
2023-05-09T02:52:13.211Z,95365.00
2023-05-09T02:53:13.211Z,95363.00
2023-05-09T02:54:13.209Z,95365.00
2023-05-09T02:55:13.331Z,95361.00
2023-05-09T02:56:13.159Z,95365.00
2023-05-09T02:57:13.404Z,95361.00
2023-05-09T02:58:14.829Z,95361.00
2023-05-09T02:59:13.159Z,95361.00
2023-05-09T03:00:13.128Z,95361.00
2023-05-09T03:01:13.125Z,95361.00
2023-05-09T03:02:13.492Z,95361.00
2023-05-09T03:03:13.228Z,95361.00
2023-05-09T03:04:13.216Z,95361.00
2023-05-09T03:05:13.528Z,95359.00
2023-05-09T03:06:13.266Z,95359.00
2023-05-09T03:07:13.290Z,95357.00
2023-05-09T03:08:13.332Z,95357.00
2023-05-09T03:09:13.435Z,95357.00
2023-05-09T03:10:13.436Z,95357.00
2023-05-09T03:11:13.439Z,95355.00
2023-05-09T03:12:13.491Z,95357.00
2023-05-09T03:13:13.661Z,95355.00
2023-05-09T03:14:13.545Z,95355.00
2023-05-09T03:15:13.951Z,95355.00
2023-05-09T03:16:13.656Z,95355.00
2023-05-09T03:17:13.667Z,95355.00
2023-05-09T03:18:13.765Z,95353.00
2023-05-09T03:19:13.726Z,95353.00
2023-05-09T03:20:13.761Z,95353.00
2023-05-09T03:21:13.779Z,95351.00
2023-05-09T03:22:13.809Z,95353.00
2023-05-09T03:23:13.868Z,95353.00
2023-05-09T03:24:13.905Z,95351.00
2023-05-09T03:25:14.191Z,95351.00
2023-05-09T03:26:14.012Z,95353.00
2023-05-09T03:27:14.403Z,95353.00
2023-05-09T03:28:14.049Z,95355.00
2023-05-09T03:29:14.116Z,95351.00
2023-05-09T03:30:14.101Z,95351.00
2023-05-09T03:31:14.212Z,95351.00
2023-05-09T03:32:15.325Z,95351.00
2023-05-09T03:33:14.249Z,95353.00
2023-05-09T03:34:14.353Z,95351.00
2023-05-09T03:35:14.477Z,95349.00
2023-05-09T03:36:14.314Z,95351.00
2023-05-09T03:37:14.385Z,95351.00
2023-05-09T03:38:14.400Z,95351.00
2023-05-09T03:39:14.458Z,95351.00
2023-05-09T03:40:14.486Z,95351.00
2023-05-09T03:41:14.542Z,95351.00
2023-05-09T03:42:14.558Z,95351.00
2023-05-09T03:43:14.572Z,95351.00
2023-05-09T03:44:14.629Z,95351.00
2023-05-09T03:45:14.755Z,95351.00
2023-05-09T03:46:14.677Z,95347.00
2023-05-09T03:47:14.904Z,95347.00
2023-05-09T03:48:14.770Z,95349.00
2023-05-09T03:49:14.824Z,95347.00
2023-05-09T03:50:14.954Z,95347.00
2023-05-09T03:51:14.887Z,95345.00
2023-05-09T03:52:14.915Z,95345.00
2023-05-09T03:53:14.954Z,95345.00
2023-05-09T03:54:14.976Z,95347.00
2023-05-09T03:55:15.165Z,95347.00
2023-05-09T03:56:15.040Z,95349.00
2023-05-09T03:57:15.431Z,95345.00
2023-05-09T03:58:15.112Z,95349.00
2023-05-09T03:59:15.162Z,95345.00
2023-05-09T04:00:15.202Z,95349.00
2023-05-09T04:01:15.262Z,95349.00
2023-05-09T04:02:15.334Z,95351.00
2023-05-09T04:03:15.401Z,95347.00
2023-05-09T04:04:15.360Z,95345.00
2023-05-09T04:05:15.627Z,95345.00
2023-05-09T04:06:15.518Z,95347.00
2023-05-09T04:07:15.920Z,95347.00
2023-05-09T04:08:15.539Z,95347.00
2023-05-09T04:09:15.538Z,95349.00
2023-05-09T04:10:15.607Z,95347.00
2023-05-09T04:11:15.618Z,95353.00
2023-05-09T04:12:15.679Z,95351.00
2023-05-09T04:13:15.687Z,95351.00
2023-05-09T04:14:15.703Z,95351.00
2023-05-09T04:15:15.964Z,95349.00
2023-05-09T04:16:15.821Z,95351.00
2023-05-09T04:17:15.834Z,95351.00
2023-05-09T04:18:15.845Z,95351.00
2023-05-09T04:19:16.518Z,95349.00
2023-05-09T04:20:15.912Z,95349.00
2023-05-09T04:21:15.936Z,95347.00
2023-05-09T04:22:16.099Z,95349.00
2023-05-09T04:23:16.042Z,95349.00
2023-05-09T04:24:16.050Z,95351.00
2023-05-09T04:25:16.394Z,95349.00
2023-05-09T04:26:16.144Z,95351.00
2023-05-09T04:27:16.149Z,95351.00
2023-05-09T04:28:16.199Z,95351.00
2023-05-09T04:29:16.242Z,95353.00
2023-05-09T04:30:16.306Z,95353.00
2023-05-09T04:31:16.465Z,95353.00
2023-05-09T04:32:16.503Z,95355.00
2023-05-09T04:33:16.364Z,95355.00
2023-05-09T04:34:16.410Z,95355.00
2023-05-09T04:35:19.008Z,95357.00
2023-05-09T04:36:16.445Z,95359.00
2023-05-09T04:37:16.446Z,95357.00
2023-05-09T04:38:16.496Z,95355.00
2023-05-09T04:39:16.411Z,95355.00
2023-05-09T04:40:16.414Z,95353.00
2023-05-09T04:41:16.389Z,95353.00
2023-05-09T04:42:16.454Z,95353.00
2023-05-09T04:43:16.364Z,95353.00
2023-05-09T04:44:16.357Z,95353.00
2023-05-09T04:45:16.691Z,95351.00
2023-05-09T04:46:16.370Z,95351.00
2023-05-09T04:47:16.339Z,95349.00
2023-05-09T04:48:16.353Z,95351.00
2023-05-09T04:49:16.943Z,95349.00
2023-05-09T04:50:16.329Z,95349.00
2023-05-09T04:51:16.322Z,95349.00
2023-05-09T04:52:16.323Z,95347.00
2023-05-09T04:53:16.459Z,95345.00
2023-05-09T04:54:16.397Z,95347.00
2023-05-09T04:55:16.535Z,95349.00
2023-05-09T04:56:16.275Z,95347.00
2023-05-09T04:57:18.488Z,95347.00
2023-05-09T04:58:16.299Z,95347.00
2023-05-09T04:59:16.253Z,95347.00
2023-05-09T05:00:16.286Z,95349.00
2023-05-09T05:01:16.250Z,95349.00
2023-05-09T05:02:16.258Z,95349.00
2023-05-09T05:03:16.259Z,95349.00
2023-05-09T05:04:16.247Z,95347.00
2023-05-09T05:05:16.271Z,95349.00
2023-05-09T05:06:16.229Z,95347.00
2023-05-09T05:07:16.221Z,95347.00
2023-05-09T05:08:16.248Z,95347.00
2023-05-09T05:09:16.233Z,95347.00
2023-05-09T05:10:16.302Z,95347.00
2023-05-09T05:11:16.209Z,95345.00
2023-05-09T05:12:16.191Z,95344.00
2023-05-09T05:13:16.222Z,95342.00
2023-05-09T05:14:16.173Z,95344.00
2023-05-09T05:15:16.351Z,95344.00
2023-05-09T05:16:16.176Z,95344.00
2023-05-09T05:17:16.151Z,95344.00
2023-05-09T05:18:16.130Z,95344.00
2023-05-09T05:19:16.110Z,95344.00
2023-05-09T05:20:16.118Z,95342.00
2023-05-09T05:21:16.123Z,95342.00
2023-05-09T05:22:16.130Z,95345.00
2023-05-09T05:23:16.129Z,95342.00
2023-05-09T05:24:16.097Z,95345.00
2023-05-09T05:25:16.306Z,95345.00
2023-05-09T05:26:16.158Z,95345.00
2023-05-09T05:27:16.121Z,95345.00
2023-05-09T05:28:16.047Z,95345.00
2023-05-09T05:29:16.081Z,95347.00
2023-05-09T05:30:16.087Z,95345.00
2023-05-09T05:31:16.119Z,95345.00
2023-05-09T05:32:16.049Z,95344.00
2023-05-09T05:33:16.052Z,95345.00
2023-05-09T05:34:16.036Z,95345.00
2023-05-09T05:35:16.279Z,95347.00
2023-05-09T05:36:16.006Z,95349.00
2023-05-09T05:37:16.011Z,95349.00
2023-05-09T05:38:16.028Z,95351.00
2023-05-09T05:39:15.988Z,95353.00
2023-05-09T05:40:16.007Z,95353.00
2023-05-09T05:41:15.997Z,95353.00
2023-05-09T05:42:16.072Z,95353.00
2023-05-09T05:43:16.477Z,95351.00
2023-05-09T05:44:15.966Z,95351.00
2023-05-09T05:45:16.356Z,95351.00
2023-05-09T05:46:15.987Z,95344.00
2023-05-09T05:47:15.940Z,95347.00
2023-05-09T05:48:15.921Z,95349.00
2023-05-09T05:49:15.917Z,95349.00
2023-05-09T05:50:15.926Z,95349.00
2023-05-09T05:51:15.943Z,95345.00
2023-05-09T05:52:15.913Z,95344.00
2023-05-09T05:53:15.981Z,95347.00
2023-05-09T05:54:15.924Z,95344.00
2023-05-09T05:55:16.235Z,95345.00
2023-05-09T05:56:16.007Z,95345.00
2023-05-09T05:57:16.054Z,95345.00
2023-05-09T05:58:16.555Z,95342.00
2023-05-09T05:59:16.139Z,95344.00
2023-05-09T06:00:16.107Z,95342.00
2023-05-09T06:01:16.106Z,95340.00
2023-05-09T06:02:16.184Z,95342.00
2023-05-09T06:03:16.535Z,95340.00
2023-05-09T06:04:16.286Z,95338.00
2023-05-09T06:05:16.477Z,95340.00
2023-05-09T06:06:16.221Z,95336.00
2023-05-09T06:07:16.200Z,95334.00
2023-05-09T06:08:16.487Z,95330.00
2023-05-09T06:09:16.220Z,95326.00
2023-05-09T06:10:16.269Z,95330.00
2023-05-09T06:11:16.282Z,95330.00
2023-05-09T06:12:16.344Z,95330.00
2023-05-09T06:13:16.504Z,95328.00
2023-05-09T06:14:16.526Z,95326.00
2023-05-09T06:15:16.802Z,95330.00
2023-05-09T06:16:19.950Z,95330.00
2023-05-09T06:17:16.660Z,95328.00
2023-05-09T06:18:16.513Z,95330.00
2023-05-09T06:19:16.517Z,95330.00
2023-05-09T06:20:16.470Z,95328.00
2023-05-09T06:21:16.498Z,95332.00
2023-05-09T06:22:16.467Z,95330.00
2023-05-09T06:23:16.475Z,95330.00
2023-05-09T06:24:23.841Z,95328.00
2023-05-09T06:25:17.505Z,95328.00
2023-05-09T06:26:16.452Z,95328.00
2023-05-09T06:27:16.433Z,95332.00
2023-05-09T06:28:16.434Z,95328.00
2023-05-09T06:29:16.419Z,95328.00
2023-05-09T06:30:25.349Z,95324.00
2023-05-09T06:31:17.446Z,95330.00
2023-05-09T06:32:16.384Z,95328.00
2023-05-09T06:33:16.411Z,95322.00
2023-05-09T06:34:16.365Z,95322.00
2023-05-09T06:35:16.534Z,95320.00
2023-05-09T06:36:16.382Z,95318.00
2023-05-09T06:37:16.367Z,95318.00
2023-05-09T06:38:16.368Z,95318.00
2023-05-09T06:39:16.434Z,95318.00
2023-05-09T06:40:16.339Z,95316.00
2023-05-09T06:41:16.357Z,95318.00
2023-05-09T06:42:16.361Z,95318.00
2023-05-09T06:43:16.484Z,95314.00
2023-05-09T06:44:16.307Z,95316.00
2023-05-09T06:45:16.732Z,95314.00
2023-05-09T06:46:16.570Z,95316.00
2023-05-09T06:47:16.466Z,95312.00
2023-05-09T06:48:16.527Z,95312.00
2023-05-09T06:49:16.537Z,95312.00
2023-05-09T06:50:16.594Z,95316.00
2023-05-09T06:51:16.621Z,95312.00
2023-05-09T06:52:16.669Z,95316.00
2023-05-09T06:53:16.756Z,95316.00
2023-05-09T06:54:16.799Z,95312.00
2023-05-09T06:55:17.006Z,95314.00
2023-05-09T06:56:17.895Z,95312.00
2023-05-09T06:57:17.042Z,95312.00
2023-05-09T06:58:17.495Z,95312.00
2023-05-09T06:59:17.117Z,95306.00
2023-05-09T07:00:17.189Z,95310.00
2023-05-09T07:01:17.275Z,95308.00
2023-05-09T07:02:17.407Z,95310.00
2023-05-09T07:03:17.378Z,95310.00
2023-05-09T07:04:17.408Z,95310.00
2023-05-09T07:05:17.719Z,95310.00
2023-05-09T07:06:17.464Z,95310.00
2023-05-09T07:07:17.498Z,95308.00
2023-05-09T07:08:17.584Z,95308.00
2023-05-09T07:09:17.603Z,95308.00
2023-05-09T07:10:17.654Z,95306.00
2023-05-09T07:11:17.696Z,95306.00
2023-05-09T07:12:17.740Z,95308.00
2023-05-09T07:13:17.827Z,95306.00
2023-05-09T07:14:17.816Z,95308.00
2023-05-09T07:15:25.931Z,95304.00
2023-05-09T07:16:18.923Z,95306.00
2023-05-09T07:17:23.264Z,95302.00
2023-05-09T07:18:18.935Z,95302.00
2023-05-09T07:19:17.808Z,95300.00
2023-05-09T07:20:17.785Z,95298.00
2023-05-09T07:21:17.816Z,95296.00
2023-05-09T07:22:17.867Z,95292.00
2023-05-09T07:23:17.809Z,95292.00
2023-05-09T07:24:17.782Z,95290.00
2023-05-09T07:25:17.792Z,95289.00
2023-05-09T07:26:17.796Z,95287.00
2023-05-09T07:27:17.865Z,95283.00
2023-05-09T07:28:17.770Z,95287.00
2023-05-09T07:29:17.736Z,95287.00
2023-05-09T07:30:17.725Z,95287.00
2023-05-09T07:31:17.786Z,95289.00
2023-05-09T07:32:17.941Z,95287.00
2023-05-09T07:33:17.812Z,95283.00
2023-05-09T07:34:17.952Z,95285.00
2023-05-09T07:35:17.916Z,95283.00
2023-05-09T07:36:17.898Z,95281.00
2023-05-09T07:37:17.906Z,95283.00
2023-05-09T07:38:18.010Z,95281.00
2023-05-09T07:39:17.997Z,95281.00
2023-05-09T07:40:18.265Z,95279.00
2023-05-09T07:41:18.047Z,95277.00
2023-05-09T07:42:18.085Z,95277.00
2023-05-09T07:43:18.076Z,95275.00
2023-05-09T07:44:18.082Z,95275.00
2023-05-09T07:45:19.013Z,95275.00
2023-05-09T07:46:18.183Z,95275.00
2023-05-09T07:47:18.217Z,95269.00
2023-05-09T07:48:18.496Z,95269.00
2023-05-09T07:49:18.257Z,95269.00
2023-05-09T07:50:18.365Z,95267.00
2023-05-09T07:51:18.296Z,95267.00
2023-05-09T07:52:18.353Z,95263.00
2023-05-09T07:53:18.389Z,95261.00
2023-05-09T07:54:18.463Z,95261.00
2023-05-09T07:55:18.612Z,95257.00
2023-05-09T07:56:18.519Z,95257.00
2023-05-09T07:57:18.548Z,95257.00
2023-05-09T07:58:18.561Z,95259.00
2023-05-09T07:59:18.651Z,95257.00
2023-05-09T08:00:18.656Z,95255.00
2023-05-09T08:01:18.716Z,95257.00
2023-05-09T08:02:18.799Z,95255.00
2023-05-09T08:03:19.006Z,95255.00
2023-05-09T08:04:18.808Z,95249.00
2023-05-09T08:05:18.800Z,95247.00
2023-05-09T08:06:18.924Z,95246.00
2023-05-09T08:07:18.858Z,95242.00
2023-05-09T08:08:18.968Z,95242.00
2023-05-09T08:09:18.910Z,95242.00
2023-05-09T08:10:18.957Z,95238.00
2023-05-09T08:11:18.996Z,95236.00
2023-05-09T08:12:19.077Z,95236.00
2023-05-09T08:13:19.147Z,95234.00
2023-05-09T08:14:19.157Z,95234.00
2023-05-09T08:15:19.194Z,95234.00
2023-05-09T08:16:19.256Z,95232.00
2023-05-09T08:17:19.245Z,95230.00
2023-05-09T08:18:19.289Z,95226.00
2023-05-09T08:19:19.291Z,95224.00
2023-05-09T08:20:19.397Z,95222.00
2023-05-09T08:21:22.069Z,95218.00
2023-05-09T08:22:19.448Z,95216.00
2023-05-09T08:23:19.390Z,95212.00
2023-05-09T08:24:19.378Z,95210.00
2023-05-09T08:25:19.339Z,95206.00
2023-05-09T08:26:19.339Z,95204.00
2023-05-09T08:27:19.361Z,95206.00
2023-05-09T08:28:19.317Z,95204.00
2023-05-09T08:29:19.320Z,95202.00
2023-05-09T08:30:19.312Z,95202.00
2023-05-09T08:31:19.357Z,95204.00
2023-05-09T08:32:19.306Z,95202.00
2023-05-09T08:33:19.303Z,95198.00
2023-05-09T08:34:19.309Z,95196.00
2023-05-09T08:35:19.262Z,95195.00
2023-05-09T08:36:19.244Z,95189.00
2023-05-09T08:37:19.278Z,95191.00
2023-05-09T08:38:19.338Z,95187.00
2023-05-09T08:39:19.522Z,95183.00
2023-05-09T08:40:19.242Z,95181.00
2023-05-09T08:41:19.247Z,95177.00
2023-05-09T08:42:19.258Z,95177.00
2023-05-09T08:43:19.238Z,95177.00
2023-05-09T08:44:19.542Z,95175.00
2023-05-09T08:45:19.210Z,95175.00
2023-05-09T08:46:19.226Z,95173.00
2023-05-09T08:47:19.250Z,95175.00
2023-05-09T08:48:19.205Z,95175.00
2023-05-09T08:49:19.537Z,95173.00
2023-05-09T08:50:19.183Z,95171.00
2023-05-09T08:51:19.160Z,95171.00
2023-05-09T08:52:19.137Z,95169.00
2023-05-09T08:53:19.146Z,95167.00
2023-05-09T08:54:22.164Z,95165.00
2023-05-09T08:55:19.117Z,95167.00
2023-05-09T08:56:19.106Z,95165.00
2023-05-09T08:57:19.157Z,95159.00
2023-05-09T08:58:19.136Z,95161.00
2023-05-09T08:59:19.155Z,95161.00
2023-05-09T09:00:20.647Z,95161.00
2023-05-09T09:01:19.125Z,95157.00
2023-05-09T09:02:19.102Z,95157.00
2023-05-09T09:03:19.068Z,95155.00
2023-05-09T09:04:19.548Z,95151.00
2023-05-09T09:05:34.632Z,95140.00
2023-05-09T09:06:20.073Z,95142.00
2023-05-09T09:07:19.052Z,95138.00
2023-05-09T09:08:19.096Z,95132.00
2023-05-09T09:09:19.544Z,95130.00
2023-05-09T09:10:19.120Z,95128.00
2023-05-09T09:11:19.024Z,95122.00
2023-05-09T09:12:19.035Z,95124.00
2023-05-09T09:13:19.106Z,95120.00
2023-05-09T09:14:18.996Z,95120.00
2023-05-09T09:15:18.996Z,95116.00
2023-05-09T09:16:19.049Z,95116.00
2023-05-09T09:17:19.086Z,95118.00
2023-05-09T09:18:19.120Z,95114.00
2023-05-09T09:19:19.547Z,95112.00
2023-05-09T09:20:19.203Z,95106.00
2023-05-09T09:21:19.278Z,95104.00
2023-05-09T09:22:19.338Z,95100.00
2023-05-09T09:23:19.357Z,95102.00
2023-05-09T09:24:19.412Z,95102.00
2023-05-09T09:25:19.499Z,95100.00
2023-05-09T09:26:19.573Z,95098.00
2023-05-09T09:27:19.536Z,95102.00
2023-05-09T09:28:19.565Z,95104.00
2023-05-09T09:29:19.593Z,95102.00
2023-05-09T09:30:19.653Z,95098.00
2023-05-09T09:31:19.712Z,95095.00
2023-05-09T09:32:19.703Z,95095.00
2023-05-09T09:33:19.694Z,95089.00
2023-05-09T09:34:19.729Z,95087.00
2023-05-09T09:35:19.715Z,95083.00
2023-05-09T09:36:19.726Z,95081.00
2023-05-09T09:37:19.784Z,95079.00
2023-05-09T09:38:19.784Z,95079.00
2023-05-09T09:39:19.812Z,95077.00
2023-05-09T09:40:19.869Z,95075.00
2023-05-09T09:41:19.908Z,95071.00
2023-05-09T09:42:20.036Z,95071.00
2023-05-09T09:43:19.994Z,95071.00
2023-05-09T09:44:20.066Z,95067.00
2023-05-09T09:45:20.159Z,95067.00
2023-05-09T09:46:20.156Z,95059.00
2023-05-09T09:47:20.139Z,95055.00
2023-05-09T09:48:20.181Z,95053.00
2023-05-09T09:49:20.228Z,95051.00
2023-05-09T09:50:20.349Z,95048.00
2023-05-09T09:51:20.317Z,95048.00
2023-05-09T09:52:20.369Z,95042.00
2023-05-09T09:53:20.392Z,95044.00
2023-05-09T09:54:20.527Z,95040.00
2023-05-09T09:55:20.472Z,95040.00
2023-05-09T09:56:20.513Z,95036.00
2023-05-09T09:57:20.554Z,95032.00
2023-05-09T09:58:20.705Z,95034.00
2023-05-09T09:59:20.677Z,95028.00
2023-05-09T10:00:20.673Z,95028.00
2023-05-09T10:01:20.829Z,95028.00
2023-05-09T10:02:20.760Z,95024.00
2023-05-09T10:03:20.898Z,95020.00
2023-05-09T10:04:20.860Z,95018.00
2023-05-09T10:05:20.874Z,95020.00
2023-05-09T10:06:20.882Z,95016.00
2023-05-09T10:07:20.941Z,95012.00
2023-05-09T10:08:20.941Z,95010.00
2023-05-09T10:09:21.041Z,95008.00
2023-05-09T10:10:20.945Z,95012.00
2023-05-09T10:11:20.996Z,95008.00
2023-05-09T10:12:21.011Z,95008.00
2023-05-09T10:13:21.121Z,95006.00
2023-05-09T10:14:21.120Z,95004.00
2023-05-09T10:15:21.031Z,95002.00
2023-05-09T10:16:28.585Z,95000.00
2023-05-09T10:17:22.188Z,94996.00
2023-05-09T10:18:21.146Z,94994.00
2023-05-09T10:19:21.066Z,94993.00
2023-05-09T10:20:21.020Z,94991.00
2023-05-09T10:21:21.057Z,94989.00
2023-05-09T10:22:20.995Z,94989.00
2023-05-09T10:23:21.014Z,94985.00
2023-05-09T10:24:21.032Z,94981.00
2023-05-09T10:25:21.013Z,94977.00
2023-05-09T10:26:21.010Z,94983.00
2023-05-09T10:27:21.007Z,94975.00
2023-05-09T10:28:20.967Z,94973.00
2023-05-09T10:29:21.004Z,94971.00
2023-05-09T10:30:21.073Z,94969.00
2023-05-09T10:31:21.018Z,94967.00
2023-05-09T10:32:21.034Z,94963.00
2023-05-09T10:33:21.113Z,94965.00
2023-05-09T10:34:21.129Z,94963.00
2023-05-09T10:35:21.152Z,94967.00
2023-05-09T10:36:21.238Z,94963.00
2023-05-09T10:37:21.256Z,94957.00
2023-05-09T10:38:21.309Z,94953.00
2023-05-09T10:39:21.327Z,94953.00
2023-05-09T10:40:21.363Z,94953.00
2023-05-09T10:41:21.406Z,94953.00
2023-05-09T10:42:21.413Z,94946.00
2023-05-09T10:43:21.452Z,94946.00
2023-05-09T10:44:21.589Z,94944.00
2023-05-09T10:45:21.553Z,94938.00
2023-05-09T10:46:21.710Z,94940.00
2023-05-09T10:47:21.741Z,94936.00
2023-05-09T10:48:21.687Z,94936.00
2023-05-09T10:49:21.766Z,94934.00
2023-05-09T10:50:21.817Z,94930.00
2023-05-09T10:51:21.843Z,94926.00
2023-05-09T10:52:21.907Z,94926.00
2023-05-09T10:53:21.954Z,94924.00
2023-05-09T10:54:22.084Z,94920.00
2023-05-09T10:55:22.074Z,94920.00
2023-05-09T10:56:22.115Z,94916.00
2023-05-09T10:57:22.172Z,94914.00
2023-05-09T10:58:22.200Z,94912.00
2023-05-09T10:59:22.259Z,94912.00
2023-05-09T11:00:22.309Z,94910.00
2023-05-09T11:01:22.368Z,94908.00
2023-05-09T11:02:22.504Z,94904.00
2023-05-09T11:03:22.472Z,94899.00
2023-05-09T11:04:22.564Z,94895.00
2023-05-09T11:05:22.456Z,94885.00
2023-05-09T11:06:22.507Z,94885.00
2023-05-09T11:07:22.520Z,94883.00
2023-05-09T11:08:22.580Z,94879.00
2023-05-09T11:09:22.615Z,94875.00
2023-05-09T11:10:22.590Z,94875.00
2023-05-09T11:11:22.632Z,94873.00
2023-05-09T11:12:22.701Z,94869.00
2023-05-09T11:13:22.766Z,94865.00
2023-05-09T11:14:23.069Z,94865.00
2023-05-09T11:15:22.674Z,94863.00
2023-05-09T11:16:22.732Z,94859.00
2023-05-09T11:17:22.900Z,94859.00
2023-05-09T11:18:22.832Z,94857.00
2023-05-09T11:19:22.754Z,94855.00
2023-05-09T11:20:22.773Z,94855.00
2023-05-09T11:21:22.809Z,94853.00
2023-05-09T11:22:22.793Z,94849.00
2023-05-09T11:23:22.811Z,94846.00
2023-05-09T11:24:22.854Z,94846.00
2023-05-09T11:25:22.890Z,94847.00
2023-05-09T11:26:22.929Z,94844.00
2023-05-09T11:27:22.916Z,94840.00
2023-05-09T11:28:23.498Z,94838.00
2023-05-09T11:29:23.066Z,94836.00
2023-05-09T11:30:22.908Z,94834.00
2023-05-09T11:31:22.962Z,94836.00
2023-05-09T11:32:23.066Z,94830.00
2023-05-09T11:33:23.001Z,94830.00
2023-05-09T11:34:23.097Z,94828.00
2023-05-09T11:35:23.080Z,94828.00
2023-05-09T11:36:23.030Z,94828.00
2023-05-09T11:37:23.107Z,94828.00
2023-05-09T11:38:23.066Z,94824.00
2023-05-09T11:39:23.064Z,94820.00
2023-05-09T11:40:23.607Z,94820.00
2023-05-09T11:41:23.184Z,94816.00
2023-05-09T11:42:23.132Z,94816.00
2023-05-09T11:43:23.138Z,94812.00
2023-05-09T11:44:23.181Z,94810.00